createdAt,value
2022-11-22T00:00:06.507Z,96
2022-11-22T00:02:04.042Z,96
2022-11-22T00:04:03.520Z,96
2022-11-22T00:06:03.177Z,96
2022-11-22T00:08:03.158Z,95.7
2022-11-22T00:10:03.242Z,95.7
2022-11-22T00:12:02.894Z,95.7
2022-11-22T00:14:02.420Z,95.7
2022-11-22T00:16:03.907Z,95.7
2022-11-22T00:18:02.087Z,95.5
2022-11-22T00:20:02.057Z,95.5
2022-11-22T00:22:01.569Z,95.5
2022-11-22T00:24:01.342Z,95.5
2022-11-22T00:26:01.148Z,95.5
2022-11-22T00:28:00.959Z,95.7
2022-11-22T00:30:00.975Z,95.7
2022-11-22T00:32:00.898Z,95.7
2022-11-22T00:34:00.801Z,95.7
2022-11-22T00:36:00.203Z,95.7
2022-11-22T00:38:00.025Z,95.4
2022-11-22T00:39:59.856Z,95.4
2022-11-22T00:41:59.747Z,95.2
2022-11-22T00:43:59.533Z,95.2
2022-11-22T00:46:00.123Z,95.2
2022-11-22T00:47:58.992Z,95.3
2022-11-22T00:49:58.803Z,95.3
2022-11-22T00:51:58.593Z,95.3
2022-11-22T00:53:58.388Z,95.3
2022-11-22T00:55:58.167Z,95.3
2022-11-22T00:57:58.030Z,95.4
2022-11-22T00:59:57.730Z,95.4
2022-11-22T01:01:57.624Z,95.4
2022-11-22T01:03:57.373Z,95.4
2022-11-22T01:05:57.212Z,95.4
2022-11-22T01:07:57.127Z,95.6
2022-11-22T01:09:56.887Z,95.9
2022-11-22T01:11:56.628Z,95.9
2022-11-22T01:13:56.402Z,95.9
2022-11-22T01:15:59.013Z,95.9
2022-11-22T01:17:55.978Z,95.8
2022-11-22T01:19:55.798Z,95.8
2022-11-22T01:21:55.677Z,95.8
2022-11-22T01:23:55.416Z,95.8
2022-11-22T01:25:55.189Z,95.8
2022-11-22T01:27:55.013Z,96.2
2022-11-22T01:29:54.837Z,96.2
2022-11-22T01:31:54.546Z,96.2
2022-11-22T01:33:54.347Z,96.2
2022-11-22T01:35:54.433Z,96.2
2022-11-22T01:37:54.147Z,96.3
2022-11-22T01:39:53.814Z,96.3
2022-11-22T01:41:53.662Z,96.3
2022-11-22T01:43:53.455Z,96.3
2022-11-22T01:45:55.076Z,96.3
2022-11-22T01:47:53.125Z,96.2
2022-11-22T01:49:56.937Z,96.2
2022-11-22T01:51:57.464Z,96.2
2022-11-22T01:53:55.823Z,96.2
2022-11-22T01:55:53.053Z,96.2
2022-11-22T01:57:52.839Z,96.4
2022-11-22T01:59:57.567Z,96.4
2022-11-22T02:01:52.732Z,96.4
2022-11-22T02:03:55.673Z,96.4
2022-11-22T02:05:52.684Z,96.4
2022-11-22T02:07:57.341Z,96.4
2022-11-22T02:09:52.416Z,96.4
2022-11-22T02:11:53.621Z,96.4
2022-11-22T02:13:52.016Z,96.4
2022-11-22T02:15:51.638Z,96.4
2022-11-22T02:17:50.241Z,96.5
2022-11-22T02:19:49.980Z,96.5
2022-11-22T02:21:57.746Z,96.5
2022-11-22T02:23:55.978Z,96.5
2022-11-22T02:25:52.227Z,96.5
2022-11-22T02:27:50.204Z,96.4
2022-11-22T02:29:49.071Z,96.4
2022-11-22T02:31:48.829Z,96.4
2022-11-22T02:33:48.737Z,96.4
2022-11-22T02:35:48.892Z,96.4
2022-11-22T02:37:50.623Z,96.6
2022-11-22T02:39:52.370Z,96.6
2022-11-22T02:41:49.077Z,96.6
2022-11-22T02:43:47.757Z,96.6
2022-11-22T02:45:47.571Z,96.6
2022-11-22T02:47:47.289Z,96.7
2022-11-22T02:49:47.181Z,96.7
2022-11-22T02:51:47.387Z,96.7
2022-11-22T02:53:49.118Z,96.7
2022-11-22T02:55:46.569Z,96.7
2022-11-22T02:57:46.293Z,96.6
2022-11-22T02:59:46.183Z,96.6
2022-11-22T03:01:46.647Z,96.6
2022-11-22T03:03:45.786Z,96.6
2022-11-22T03:05:45.695Z,96.6
2022-11-22T03:07:45.511Z,96.6
2022-11-22T03:09:45.218Z,96.6
2022-11-22T03:11:45.023Z,96.6
2022-11-22T03:13:44.963Z,96.6
2022-11-22T03:15:47.805Z,96.6
2022-11-22T03:17:44.441Z,96.6
2022-11-22T03:19:44.257Z,96.6
2022-11-22T03:21:44.122Z,96.6
2022-11-22T03:23:43.856Z,96.6
2022-11-22T03:25:43.736Z,96.6
2022-11-22T03:27:43.781Z,96.6
2022-11-22T03:29:43.317Z,96.6
2022-11-22T03:31:43.110Z,96.6
2022-11-22T03:33:42.881Z,96.6
2022-11-22T03:35:42.667Z,96.6
2022-11-22T03:37:42.461Z,96.9
2022-11-22T03:39:42.385Z,96.9
2022-11-22T03:41:42.218Z,96.9
2022-11-22T03:43:41.888Z,96.9
2022-11-22T03:45:44.732Z,96.9
2022-11-22T03:47:41.572Z,97
2022-11-22T03:49:41.366Z,97
2022-11-22T03:51:41.271Z,97
2022-11-22T03:53:41.066Z,97
2022-11-22T03:55:40.657Z,97
2022-11-22T03:57:40.600Z,97.1
2022-11-22T03:59:40.321Z,97.1
2022-11-22T04:01:40.326Z,97.1
2022-11-22T04:03:40.076Z,97.1
2022-11-22T04:05:39.796Z,97.1
2022-11-22T04:07:39.599Z,96.9
2022-11-22T04:09:39.346Z,96.9
2022-11-22T04:11:39.174Z,96.9
2022-11-22T04:13:39.026Z,96.9
2022-11-22T04:15:39.115Z,96.9
2022-11-22T04:17:40.126Z,97.1
2022-11-22T04:19:38.386Z,97.1
2022-11-22T04:21:38.201Z,97.1
2022-11-22T04:23:37.966Z,97.1
2022-11-22T04:25:39.936Z,97.1
2022-11-22T04:27:37.533Z,97.1
2022-11-22T04:29:37.338Z,97.1
2022-11-22T04:31:37.352Z,97.1
2022-11-22T04:33:37.098Z,97.1
2022-11-22T04:35:37.519Z,97.1
2022-11-22T04:37:36.597Z,97.1
2022-11-22T04:39:36.584Z,97.1
2022-11-22T04:41:36.250Z,97.1
2022-11-22T04:43:36.386Z,97.1
2022-11-22T04:45:36.239Z,97.1
2022-11-22T04:47:35.611Z,97.2
2022-11-22T04:49:35.918Z,97.2
2022-11-22T04:51:35.340Z,97.2
2022-11-22T04:53:35.126Z,97.2
2022-11-22T04:55:35.226Z,97.2
2022-11-22T04:57:34.830Z,97
2022-11-22T04:59:34.596Z,97
2022-11-22T05:01:34.743Z,97
2022-11-22T05:03:34.374Z,97
2022-11-22T05:05:35.684Z,97
2022-11-22T05:07:34.072Z,97
2022-11-22T05:09:33.803Z,97
2022-11-22T05:11:33.621Z,97
2022-11-22T05:13:36.026Z,97
2022-11-22T05:15:33.308Z,97
2022-11-22T05:17:33.185Z,97
2022-11-22T05:19:32.966Z,97
2022-11-22T05:21:33.458Z,97
2022-11-22T05:23:33.455Z,97
2022-11-22T05:25:32.541Z,97
2022-11-22T05:27:32.360Z,97
2022-11-22T05:29:32.432Z,97
2022-11-22T05:31:33.680Z,97
2022-11-22T05:33:31.756Z,97
2022-11-22T05:35:31.667Z,97
2022-11-22T05:37:31.405Z,97.1
2022-11-22T05:39:31.933Z,97.1
2022-11-22T05:41:31.204Z,97.1
2022-11-22T05:43:31.173Z,97.1
2022-11-22T05:45:30.796Z,97.1
2022-11-22T05:47:34.845Z,97.1
2022-11-22T05:49:30.861Z,97.1
2022-11-22T05:51:34.172Z,97.1
2022-11-22T05:53:30.124Z,97.1
2022-11-22T05:55:30.425Z,97.1
2022-11-22T05:57:31.753Z,97.2
2022-11-22T05:59:29.873Z,97.2
2022-11-22T06:01:29.652Z,97.2
2022-11-22T06:03:29.557Z,97.2
2022-11-22T06:05:29.859Z,97.2
2022-11-22T06:07:29.537Z,97.2
2022-11-22T06:09:29.111Z,97.2
2022-11-22T06:11:28.848Z,97.2
2022-11-22T06:13:28.464Z,97.2
2022-11-22T06:15:29.676Z,97.2
2022-11-22T06:17:28.169Z,96.7
2022-11-22T06:19:28.571Z,96.7
2022-11-22T06:21:27.910Z,96.7
2022-11-22T06:23:28.606Z,96.7
2022-11-22T06:25:27.815Z,96.7
2022-11-22T06:27:27.463Z,96.4
2022-11-22T06:29:28.630Z,96.4
2022-11-22T06:31:28.003Z,96.4
2022-11-22T06:33:27.192Z,96.4
2022-11-22T06:35:26.812Z,96.4
2022-11-22T06:37:26.653Z,96.5
2022-11-22T06:39:26.575Z,96.5
2022-11-22T06:41:30.532Z,96.5
2022-11-22T06:43:27.321Z,96.5
2022-11-22T06:45:26.090Z,96.5
2022-11-22T06:47:25.790Z,95.6
2022-11-22T06:49:25.596Z,95.6
2022-11-22T06:51:27.702Z,95.2
2022-11-22T06:53:46.379Z,95.2
2022-11-22T06:55:48.982Z,95.2
2022-11-22T06:57:24.955Z,95.1
2022-11-22T06:59:24.932Z,95.1
2022-11-22T07:01:27.292Z,94.7
2022-11-22T07:03:24.482Z,94.7
2022-11-22T07:05:26.034Z,94.7
2022-11-22T07:07:24.283Z,94.4
2022-11-22T07:09:24.161Z,94.4
2022-11-22T07:11:25.924Z,94.4
2022-11-22T07:13:23.721Z,94.4
2022-11-22T07:15:23.552Z,94.4
2022-11-22T07:17:23.391Z,95.4
2022-11-22T07:19:23.262Z,95.4
2022-11-22T07:21:24.142Z,95.4
2022-11-22T07:23:23.096Z,95.4
2022-11-22T07:25:22.890Z,95.4
2022-11-22T07:27:22.662Z,95.1
2022-11-22T07:29:22.557Z,94.7
2022-11-22T07:31:22.375Z,94.7
2022-11-22T07:33:22.176Z,94.7
2022-11-22T07:35:22.122Z,94.7
2022-11-22T07:37:21.949Z,94.6
2022-11-22T07:39:21.745Z,94.6
2022-11-22T07:41:21.925Z,94.6
2022-11-22T07:43:21.416Z,94.6
2022-11-22T07:45:21.338Z,94.6
2022-11-22T07:47:23.033Z,94.3
2022-11-22T07:49:21.389Z,94.1
2022-11-22T07:51:20.983Z,94.1
2022-11-22T07:53:20.866Z,94.1
2022-11-22T07:55:20.616Z,94.1
2022-11-22T07:57:20.418Z,94.1
2022-11-22T07:59:20.435Z,94.1
2022-11-22T08:01:20.357Z,94.1
2022-11-22T08:03:24.131Z,94.1
2022-11-22T08:05:20.473Z,94.1
2022-11-22T08:07:19.824Z,94.3
2022-11-22T08:09:19.598Z,94.3
2022-11-22T08:11:19.444Z,94.3
2022-11-22T08:13:19.455Z,94.3
2022-11-22T08:15:19.322Z,94.3
2022-11-22T08:17:18.967Z,93.9
2022-11-22T08:19:19.012Z,93.9
2022-11-22T08:21:19.020Z,93.9
2022-11-22T08:23:18.734Z,93.9
2022-11-22T08:25:18.712Z,93.9
2022-11-22T08:27:18.484Z,94.1
2022-11-22T08:29:18.189Z,94.1
2022-11-22T08:31:18.555Z,94.1
2022-11-22T08:33:17.888Z,94.1
2022-11-22T08:35:17.867Z,94.7
2022-11-22T08:37:18.013Z,94.6
2022-11-22T08:39:17.469Z,94.6
2022-11-22T08:41:17.448Z,94.6
2022-11-22T08:43:17.412Z,94.1
2022-11-22T08:45:17.042Z,94.1
2022-11-22T08:47:17.200Z,94.3
2022-11-22T08:49:17.184Z,94.3
2022-11-22T08:51:16.693Z,94.7
2022-11-22T08:53:16.551Z,94.7
2022-11-22T08:55:16.562Z,94.7
2022-11-22T08:57:16.210Z,95.6
2022-11-22T08:59:16.302Z,95.6
2022-11-22T09:01:17.994Z,95.6
2022-11-22T09:03:15.829Z,95.6
2022-11-22T09:05:15.734Z,95.6
2022-11-22T09:09:36.418Z,94.7
2022-11-22T09:11:17.201Z,94.7
2022-11-22T09:13:15.164Z,94.7
2022-11-22T09:15:15.281Z,94.7
2022-11-22T09:17:18.126Z,93.9
2022-11-22T09:19:14.868Z,93.9
2022-11-22T09:21:16.616Z,93.9
2022-11-22T09:23:14.728Z,93.3
2022-11-22T09:25:14.291Z,93.3
2022-11-22T09:27:14.004Z,93.2
2022-11-22T09:29:14.069Z,93.2
2022-11-22T09:31:15.981Z,93.2
2022-11-22T09:33:13.653Z,93.2
2022-11-22T09:35:13.806Z,93.2
2022-11-22T09:37:13.403Z,93.5
2022-11-22T09:39:13.284Z,93.5
2022-11-22T09:41:22.616Z,93.5
2022-11-22T09:43:23.579Z,93.5
2022-11-22T09:45:34.887Z,93.5
2022-11-22T09:47:26.757Z,92.8
2022-11-22T09:49:26.543Z,92.8
2022-11-22T09:51:17.886Z,92.8
2022-11-22T09:53:19.746Z,93.3
2022-11-22T09:55:24.184Z,93.3
2022-11-22T09:57:16.400Z,93.8
2022-11-22T09:59:17.822Z,93.9
2022-11-22T10:01:16.886Z,93.9
2022-11-22T10:03:19.951Z,93.9
2022-11-22T10:05:16.943Z,93.9
2022-11-22T10:07:17.909Z,94
2022-11-22T10:09:25.243Z,94
2022-11-22T10:11:23.494Z,94
2022-11-22T10:13:16.360Z,94
2022-11-22T10:15:21.895Z,94
2022-11-22T10:17:23.092Z,94.1
2022-11-22T10:19:15.908Z,94.1
2022-11-22T10:21:12.214Z,94.5
2022-11-22T10:23:16.377Z,94.5
2022-11-22T10:25:16.680Z,94.5
2022-11-22T10:27:12.504Z,95.3
2022-11-22T10:29:22.081Z,95.3
2022-11-22T10:31:16.142Z,95.3
2022-11-22T10:33:18.009Z,95.3
2022-11-22T10:35:27.180Z,95.3
2022-11-22T10:37:19.355Z,95.1
2022-11-22T10:39:18.759Z,95.1
2022-11-22T10:41:23.374Z,95.9
2022-11-22T10:43:28.305Z,95.9
2022-11-22T10:45:16.655Z,96.4
2022-11-22T10:47:16.198Z,96.4
2022-11-22T10:49:19.556Z,96.4
2022-11-22T10:51:17.708Z,97.1
2022-11-22T10:53:18.722Z,97.1
2022-11-22T10:55:22.511Z,97.1
2022-11-22T10:57:28.414Z,97.3
2022-11-22T10:59:28.803Z,97.3
2022-11-22T11:01:17.224Z,97.3
2022-11-22T11:03:16.359Z,97.3
2022-11-22T11:05:13.944Z,97.3
2022-11-22T11:07:15.262Z,97.3
2022-11-22T11:11:07.951Z,97.3
2022-11-22T11:13:19.646Z,97.3
2022-11-22T11:15:17.674Z,97.3
2022-11-22T11:17:07.373Z,97.3
2022-11-22T11:19:16.821Z,97.2
2022-11-22T11:21:10.768Z,96.6
2022-11-22T11:23:16.500Z,96.6
2022-11-22T11:25:29.904Z,96.6
2022-11-22T11:27:08.442Z,96.6
2022-11-22T11:29:37.893Z,96.4
2022-11-22T11:31:08.666Z,96.4
2022-11-22T11:33:17.987Z,96.4
2022-11-22T11:35:06.564Z,96.4
2022-11-22T11:37:11.824Z,96.7
2022-11-22T11:39:19.278Z,96.7
2022-11-22T11:41:22.375Z,96.7
2022-11-22T11:43:15.270Z,96.7
2022-11-22T11:45:27.106Z,96.7
2022-11-22T11:47:05.685Z,96.7
2022-11-22T11:49:10.627Z,95.9
2022-11-22T11:51:11.778Z,95.9
2022-11-22T11:53:21.216Z,95.9
2022-11-22T11:55:15.512Z,95.9
2022-11-22T11:57:10.084Z,96.4
2022-11-22T11:59:11.513Z,96.4
2022-11-22T12:01:10.266Z,96
2022-11-22T12:03:06.812Z,96.6
2022-11-22T12:05:07.149Z,96.6
2022-11-22T12:07:17.808Z,96
2022-11-22T12:09:27.104Z,96
2022-11-22T12:11:11.186Z,96
2022-11-22T12:13:13.194Z,96
2022-11-22T12:15:12.362Z,96.7
2022-11-22T12:17:11.798Z,97.1
2022-11-22T12:19:14.943Z,97.4
2022-11-22T12:21:15.868Z,96.4
2022-11-22T12:23:15.478Z,96.4
2022-11-22T12:25:35.848Z,96.4
2022-11-22T12:27:04.048Z,97
2022-11-22T12:29:04.276Z,97
2022-11-22T12:31:14.829Z,97
2022-11-22T12:33:07.443Z,96.3
2022-11-22T12:35:11.466Z,96.3
2022-11-22T12:37:07.033Z,96.3
2022-11-22T12:39:05.086Z,96.4
2022-11-22T12:41:07.455Z,97
2022-11-22T12:43:07.626Z,97
2022-11-22T12:45:07.568Z,96.5
2022-11-22T12:47:08.153Z,96.5
2022-11-22T12:49:10.332Z,96.6
2022-11-22T12:51:11.692Z,96.6
2022-11-22T12:53:10.646Z,96.6
2022-11-22T12:55:08.212Z,96.6
2022-11-22T12:57:10.420Z,96.8
2022-11-22T12:59:18.337Z,96.8
2022-11-22T13:01:12.404Z,96.8
2022-11-22T13:03:08.249Z,97.1
2022-11-22T13:05:08.977Z,97.1
2022-11-22T13:07:10.851Z,97.1
2022-11-22T13:09:05.667Z,97.1
2022-11-22T13:11:10.881Z,97.7
2022-11-22T13:13:03.923Z,97.7
2022-11-22T13:15:02.381Z,97.7
2022-11-22T13:17:06.684Z,97.7
2022-11-22T13:19:05.048Z,97.7
2022-11-22T13:21:09.624Z,97.7
2022-11-22T13:23:18.531Z,97.7
2022-11-22T13:25:28.373Z,98.2
2022-11-22T13:27:11.743Z,98.2
2022-11-22T13:29:09.196Z,98.2
2022-11-22T13:31:12.691Z,98.2
2022-11-22T13:33:01.018Z,98.2
2022-11-22T13:35:16.705Z,98.2
2022-11-22T13:37:07.574Z,98.2
2022-11-22T13:39:03.768Z,98.1
2022-11-22T13:41:21.782Z,98.1
2022-11-22T13:43:29.878Z,98.1
2022-11-22T13:45:20.197Z,98.1
2022-11-22T13:47:01.432Z,98.1
2022-11-22T13:49:14.076Z,97.7
2022-11-22T13:51:01.307Z,97.7
2022-11-22T13:53:16.659Z,97.7
2022-11-22T13:55:25.226Z,97.7
2022-11-22T13:57:02.553Z,97.7
2022-11-22T13:59:12.034Z,97.5
2022-11-22T14:00:59.980Z,97.1
2022-11-22T14:03:23.691Z,97.1
2022-11-22T14:04:59.592Z,97.1
2022-11-22T14:07:04.625Z,97.1
2022-11-22T14:09:16.401Z,97.3
2022-11-22T14:11:13.342Z,97.3
2022-11-22T14:13:15.284Z,97.3
2022-11-22T14:15:19.087Z,97.3
2022-11-22T14:17:12.088Z,97.3
2022-11-22T14:19:17.515Z,97.3
2022-11-22T14:21:04.189Z,97.3
2022-11-22T14:23:04.430Z,97.3
2022-11-22T14:25:11.390Z,97.7
2022-11-22T14:27:10.443Z,97.7
2022-11-22T14:29:20.993Z,97.7
2022-11-22T14:30:58.405Z,97.7
2022-11-22T14:33:02.208Z,97.7
2022-11-22T14:35:28.985Z,97.7
2022-11-22T14:37:27.454Z,97.5
2022-11-22T14:38:57.904Z,97.5
2022-11-22T14:41:27.241Z,97.5
2022-11-22T14:43:00.873Z,97.5
2022-11-22T14:44:58.720Z,97.5
2022-11-22T14:47:03.986Z,97.5
2022-11-22T14:49:04.261Z,98
2022-11-22T14:51:05.613Z,98
2022-11-22T14:52:59.787Z,98
2022-11-22T14:55:00.106Z,98
2022-11-22T14:57:04.503Z,98
2022-11-22T14:59:09.471Z,98.1
2022-11-22T15:01:19.828Z,98.1
2022-11-22T15:03:26.182Z,98.2
2022-11-22T15:09:21.292Z,98.5
2022-11-22T15:09:21.750Z,98.2
2022-11-22T15:09:33.362Z,98.5
2022-11-22T15:11:21.019Z,98.5
2022-11-22T15:13:15.373Z,98.5
2022-11-22T15:58:56.353Z,98.8
2022-11-22T16:01:01.364Z,98.8
2022-11-22T16:02:56.793Z,98.8
2022-11-22T16:06:05.399Z,98.8
2022-11-22T16:06:55.562Z,98.8
2022-11-22T16:08:57.900Z,98.9
2022-11-22T16:10:54.165Z,98.9
2022-11-22T16:12:54.306Z,98.9
2022-11-22T16:14:53.792Z,98.9
2022-11-22T16:16:53.540Z,98.9
2022-11-22T16:19:08.746Z,98.8
2022-11-22T16:21:01.604Z,98.8
2022-11-22T16:23:16.415Z,98.8
2022-11-22T16:25:23.069Z,98.8
2022-11-22T16:26:55.714Z,98.8
2022-11-22T16:28:55.149Z,98.7
2022-11-22T16:30:54.102Z,98.7
2022-11-22T16:32:52.773Z,98.7
2022-11-22T16:35:08.515Z,98.7
2022-11-22T16:36:52.584Z,98.7
2022-11-22T16:38:52.571Z,99
2022-11-22T16:40:53.689Z,99.1
2022-11-22T16:42:52.429Z,99.1
2022-11-22T16:44:52.342Z,99.1
2022-11-22T16:46:52.083Z,99.1
2022-11-22T16:48:52.323Z,99.3
2022-11-22T16:50:57.560Z,99.3
2022-11-22T16:52:52.104Z,99.3
2022-11-22T16:54:51.847Z,99.3
2022-11-22T16:56:51.662Z,99.3
2022-11-22T16:58:54.193Z,98.8
2022-11-22T17:00:51.692Z,98.8
2022-11-22T17:02:51.618Z,98.8
2022-11-22T17:04:51.371Z,98.8
2022-11-22T17:06:52.054Z,98.8
2022-11-22T17:08:53.406Z,99
2022-11-22T17:10:52.073Z,99
2022-11-22T17:12:51.424Z,99
2022-11-22T17:14:52.085Z,99
2022-11-22T17:16:51.195Z,99
2022-11-22T17:18:51.558Z,99.2
2022-11-22T17:20:51.849Z,99.2
2022-11-22T17:22:50.735Z,99.2
2022-11-22T17:24:50.549Z,99.2
2022-11-22T17:26:50.692Z,99.2
2022-11-22T17:28:50.379Z,99.7
2022-11-22T17:30:50.701Z,99.7
2022-11-22T17:32:50.261Z,99.7
2022-11-22T17:34:50.078Z,99.7
2022-11-22T17:36:50.151Z,99.7
2022-11-22T17:38:50.207Z,99.8
2022-11-22T17:40:58.070Z,99.8
2022-11-22T17:42:49.954Z,99.8
2022-11-22T17:44:49.910Z,99.8
2022-11-22T17:46:49.702Z,99.8
2022-11-22T17:48:51.841Z,99.8
2022-11-22T17:50:49.396Z,99.8
2022-11-22T17:52:51.326Z,99.8
2022-11-22T17:54:49.269Z,99.8
2022-11-22T17:56:49.266Z,99.8
2022-11-22T17:58:49.167Z,100
2022-11-22T18:00:49.151Z,100
2022-11-22T18:02:49.040Z,100
2022-11-22T18:04:49.072Z,100
2022-11-22T18:06:48.722Z,100
2022-11-22T18:08:48.622Z,100
2022-11-22T18:10:51.942Z,100
2022-11-22T18:13:13.503Z,100
2022-11-22T18:14:48.327Z,100
2022-11-22T18:16:48.853Z,100
2022-11-22T18:18:56.861Z,99.8
2022-11-22T18:20:48.573Z,99.8
2022-11-22T18:22:48.508Z,99.8
2022-11-22T18:24:47.946Z,99.8
2022-11-22T18:26:47.761Z,99.8
2022-11-22T18:29:08.723Z,100
2022-11-22T18:30:47.680Z,100
2022-11-22T18:32:47.461Z,100
2022-11-22T18:34:47.508Z,100
2022-11-22T18:36:57.691Z,100
2022-11-22T18:38:50.588Z,100
2022-11-22T18:40:47.326Z,100
2022-11-22T18:42:46.989Z,100
2022-11-22T18:44:46.954Z,100
2022-11-22T18:46:47.075Z,100
2022-11-22T18:48:48.579Z,100
2022-11-22T18:50:46.648Z,100
2022-11-22T18:52:46.480Z,100
2022-11-22T18:54:46.442Z,100
2022-11-22T18:56:46.323Z,100
2022-11-22T18:58:46.247Z,100
2022-11-22T19:00:46.339Z,100
2022-11-22T19:02:46.867Z,100
2022-11-22T19:04:46.028Z,100
2022-11-22T19:06:46.197Z,100
2022-11-22T19:08:46.831Z,100
2022-11-22T19:10:55.307Z,100
2022-11-22T19:12:45.656Z,100
2022-11-22T19:14:45.683Z,100
2022-11-22T19:16:45.488Z,100
2022-11-22T19:18:45.518Z,99.8
2022-11-22T19:20:54.955Z,99.8
2022-11-22T19:22:45.157Z,99.8
2022-11-22T19:24:47.369Z,99.8
2022-11-22T19:26:45.028Z,99.8
2022-11-22T19:28:45.209Z,99.7
2022-11-22T19:30:44.811Z,99.7
2022-11-22T19:32:45.895Z,99.7
2022-11-22T19:34:44.618Z,99.7
2022-11-22T19:36:44.590Z,99.7
2022-11-22T19:38:45.123Z,99.1
2022-11-22T19:40:44.319Z,99.1
2022-11-22T19:42:44.278Z,99.1
2022-11-22T19:44:44.118Z,99.1
2022-11-22T19:46:44.385Z,99.1
2022-11-22T19:48:47.276Z,99.1
2022-11-22T19:50:44.442Z,99.1
2022-11-22T19:52:43.752Z,98.6
2022-11-22T19:54:43.770Z,98.6
2022-11-22T19:56:43.717Z,98
2022-11-22T19:58:48.707Z,98
2022-11-22T20:00:43.546Z,98
2022-11-22T20:02:43.266Z,98
2022-11-22T20:04:43.297Z,98
2022-11-22T20:06:48.592Z,98
2022-11-22T20:08:43.430Z,97.7
2022-11-22T20:10:42.979Z,97.4
2022-11-22T20:12:43.884Z,97.4
2022-11-22T20:14:42.790Z,97.4
2022-11-22T20:16:42.895Z,97.4
2022-11-22T20:18:42.823Z,97.5
2022-11-22T20:20:42.927Z,97.5
2022-11-22T20:22:42.318Z,97.5
2022-11-22T20:24:42.419Z,97.5
2022-11-22T20:26:42.189Z,97.9
2022-11-22T20:28:43.916Z,97.9
2022-11-22T20:30:41.954Z,97.9
2022-11-22T20:32:42.406Z,97.9
2022-11-22T20:34:41.750Z,97.9
2022-11-22T20:36:41.715Z,97.9
2022-11-22T20:38:43.224Z,97.7
2022-11-22T20:40:41.484Z,97.7
2022-11-22T20:42:41.814Z,97.7
2022-11-22T20:44:41.532Z,97.7
2022-11-22T20:46:41.781Z,97.7
2022-11-22T20:48:43.299Z,98.2
2022-11-22T20:50:41.073Z,98.2
2022-11-22T20:52:40.988Z,98.2
2022-11-22T20:54:40.937Z,98.2
2022-11-22T20:56:41.007Z,98.2
2022-11-22T20:58:41.341Z,97.8
2022-11-22T21:00:40.687Z,97.8
2022-11-22T21:02:40.598Z,97.8
2022-11-22T21:04:40.540Z,97.8
2022-11-22T21:06:40.421Z,98.4
2022-11-22T21:08:40.788Z,98.4
2022-11-22T21:10:40.259Z,98.4
2022-11-22T21:12:40.253Z,98.4
2022-11-22T21:14:40.096Z,98.4
2022-11-22T21:16:40.166Z,98.9
2022-11-22T21:18:40.034Z,99
2022-11-22T21:20:39.850Z,99
2022-11-22T21:22:40.369Z,99
2022-11-22T21:24:39.767Z,99.5
2022-11-22T21:26:39.626Z,99.5
2022-11-22T21:28:39.551Z,99.5
2022-11-22T21:30:39.461Z,99.5
2022-11-22T21:32:39.513Z,100
2022-11-22T21:34:39.556Z,100
2022-11-22T21:36:39.187Z,100
2022-11-22T21:38:39.174Z,100
2022-11-22T21:40:39.165Z,100
2022-11-22T21:42:39.025Z,100
2022-11-22T21:44:39.486Z,100
2022-11-22T21:46:39.096Z,100
2022-11-22T21:48:38.735Z,100
2022-11-22T21:50:38.680Z,100
2022-11-22T21:52:38.546Z,100
2022-11-22T21:54:38.484Z,100
2022-11-22T21:56:38.436Z,100
2022-11-22T21:58:38.339Z,100
2022-11-22T22:00:38.156Z,100
2022-11-22T22:02:38.139Z,100
2022-11-22T22:04:38.063Z,100
2022-11-22T22:06:42.304Z,100
2022-11-22T22:08:37.999Z,100
2022-11-22T22:10:37.742Z,100
2022-11-22T22:12:38.104Z,100
2022-11-22T22:14:37.636Z,100
2022-11-22T22:16:37.555Z,100
2022-11-22T22:18:38.231Z,100
2022-11-22T22:20:37.427Z,100
2022-11-22T22:22:37.789Z,100
2022-11-22T22:24:37.388Z,100
2022-11-22T22:26:37.240Z,100
2022-11-22T22:28:38.359Z,100
2022-11-22T22:30:37.087Z,100
2022-11-22T22:32:37.125Z,100
2022-11-22T22:34:37.060Z,100
2022-11-22T22:36:36.945Z,100
2022-11-22T22:38:37.317Z,100
2022-11-22T22:40:37.051Z,100
2022-11-22T22:42:36.651Z,100
2022-11-22T22:44:36.826Z,100
2022-11-22T22:46:36.483Z,100
2022-11-22T22:48:36.704Z,100
2022-11-22T22:50:36.423Z,100
2022-11-22T22:52:36.469Z,100
2022-11-22T22:54:36.196Z,100
2022-11-22T22:56:36.216Z,100
2022-11-22T22:58:36.350Z,100
2022-11-22T23:00:35.995Z,100
2022-11-22T23:02:35.935Z,100
2022-11-22T23:04:35.924Z,100
2022-11-22T23:06:37.622Z,100
2022-11-22T23:08:36.763Z,99.7
2022-11-22T23:10:35.771Z,99.7
2022-11-22T23:12:35.552Z,99.7
2022-11-22T23:14:35.436Z,99.7
2022-11-22T23:16:37.594Z,99.7
2022-11-22T23:18:36.995Z,99.8
2022-11-22T23:20:35.225Z,99.8
2022-11-22T23:22:35.132Z,99.8
2022-11-22T23:24:34.985Z,99.8
2022-11-22T23:26:35.536Z,99.8
2022-11-22T23:28:35.085Z,99.7
2022-11-22T23:30:34.971Z,99.7
2022-11-22T23:32:34.721Z,99.7
2022-11-22T23:34:34.650Z,99.7
2022-11-22T23:36:40.175Z,99.7
2022-11-22T23:38:35.480Z,99.6
2022-11-22T23:40:34.415Z,99.6
2022-11-22T23:42:34.354Z,99.5
2022-11-22T23:44:34.231Z,99.5
2022-11-22T23:46:34.284Z,99.5
2022-11-22T23:48:34.117Z,99.4
2022-11-22T23:50:37.328Z,99.4
2022-11-22T23:52:34.042Z,99.4
2022-11-22T23:54:34.004Z,99.4
2022-11-22T23:56:34.202Z,99.4
2022-11-22T23:58:34.372Z,99.6
